Forestburg, Texas
Current Conditions -  °F | °C
As of 1:15 PM on Sunday 21 Dec 2014 (Local Time) from K0F2 Reporting Station
Haze Haze  
Wind Chill: 42°   Ceiling: 700
Heat Index: 47°   Visibility: 4mi
Dew Point: 46°   Wind: 12mph
Humidity: 95%   Direction: 160°SSE
Pressure: 29.88"   Gusts: 20mph
Location:  33.53°N, 97.56°W
Report Text: K0F2 211915Z AUTO 16010G17KT 4SM BR OVC007 09/08 A2988 RMK AO2 T00860078
Loading
Personal Weather Stations






























Interactive Weather Map New forecast layout! Learn more

10-Day Weather Forecast

Advertisements
Track Severe Weather on mobile